sensor_id;sensor_type;location;lat;lon;timestamp;P1;durP1;ratioP1;P2;durP2;ratioP2
7645;SDS011;3864;48.180;14.178;2023-09-12T00:01:56;20.83;;;15.13;;
7645;SDS011;3864;48.180;14.178;2023-09-12T00:04:23;24.13;;;17.00;;
7645;SDS011;3864;48.180;14.178;2023-09-12T00:06:50;22.90;;;17.20;;
7645;SDS011;3864;48.180;14.178;2023-09-12T00:09:16;26.55;;;17.30;;
7645;SDS011;3864;48.180;14.178;2023-09-12T00:11:43;27.88;;;18.15;;
7645;SDS011;3864;48.180;14.178;2023-09-12T00:14:10;26.77;;;18.52;;
7645;SDS011;3864;48.180;14.178;2023-09-12T00:16:41;22.92;;;17.30;;
7645;SDS011;3864;48.180;14.178;2023-09-12T00:19:09;30.27;;;20.15;;
7645;SDS011;3864;48.180;14.178;2023-09-12T00:21:36;28.63;;;20.02;;
7645;SDS011;3864;48.180;14.178;2023-09-12T00:24:03;29.60;;;18.95;;
7645;SDS011;3864;48.180;14.178;2023-09-12T00:26:31;30.25;;;18.92;;
7645;SDS011;3864;48.180;14.178;2023-09-12T00:28:58;30.25;;;20.52;;
7645;SDS011;3864;48.180;14.178;2023-09-12T00:35:00;33.55;;;20.83;;
7645;SDS011;3864;48.180;14.178;2023-09-12T00:37:28;31.27;;;21.52;;
7645;SDS011;3864;48.180;14.178;2023-09-12T00:39:55;31.00;;;20.30;;
7645;SDS011;3864;48.180;14.178;2023-09-12T00:42:24;30.13;;;19.48;;
7645;SDS011;3864;48.180;14.178;2023-09-12T00:44:51;30.05;;;19.88;;
7645;SDS011;3864;48.180;14.178;2023-09-12T00:47:34;27.20;;;18.83;;
7645;SDS011;3864;48.180;14.178;2023-09-12T00:50:05;27.50;;;18.70;;
7645;SDS011;3864;48.180;14.178;2023-09-12T00:52:35;29.80;;;19.13;;
7645;SDS011;3864;48.180;14.178;2023-09-12T00:55:05;31.20;;;20.52;;
7645;SDS011;3864;48.180;14.178;2023-09-12T00:57:32;32.40;;;21.35;;
7645;SDS011;3864;48.180;14.178;2023-09-12T01:00:01;30.30;;;20.00;;
7645;SDS011;3864;48.180;14.178;2023-09-12T01:02:36;29.45;;;20.42;;
7645;SDS011;3864;48.180;14.178;2023-09-12T01:05:13;28.20;;;18.92;;
7645;SDS011;3864;48.180;14.178;2023-09-12T01:07:40;26.20;;;18.52;;
7645;SDS011;3864;48.180;14.178;2023-09-12T01:10:09;26.45;;;18.35;;
7645;SDS011;3864;48.180;14.178;2023-09-12T01:12:36;29.95;;;18.52;;
7645;SDS011;3864;48.180;14.178;2023-09-12T01:15:04;27.20;;;17.08;;
7645;SDS011;3864;48.180;14.178;2023-09-12T01:17:38;30.45;;;20.20;;
7645;SDS011;3864;48.180;14.178;2023-09-12T01:20:06;28.67;;;19.27;;
7645;SDS011;3864;48.180;14.178;2023-09-12T01:22:45;31.13;;;18.90;;
7645;SDS011;3864;48.180;14.178;2023-09-12T01:28:24;27.15;;;17.73;;
7645;SDS011;3864;48.180;14.178;2023-09-12T01:33:23;28.45;;;18.17;;
7645;SDS011;3864;48.180;14.178;2023-09-12T01:35:51;36.72;;;20.75;;
7645;SDS011;3864;48.180;14.178;2023-09-12T01:38:18;30.50;;;19.92;;
7645;SDS011;3864;48.180;14.178;2023-09-12T01:40:46;27.50;;;18.83;;
7645;SDS011;3864;48.180;14.178;2023-09-12T01:43:15;27.45;;;19.33;;
7645;SDS011;3864;48.180;14.178;2023-09-12T01:45:47;28.15;;;18.42;;
7645;SDS011;3864;48.180;14.178;2023-09-12T01:48:17;26.77;;;18.15;;
7645;SDS011;3864;48.180;14.178;2023-09-12T01:50:47;29.85;;;19.88;;
7645;SDS011;3864;48.180;14.178;2023-09-12T01:53:15;31.42;;;19.63;;
7645;SDS011;3864;48.180;14.178;2023-09-12T01:55:43;30.48;;;18.98;;
7645;SDS011;3864;48.180;14.178;2023-09-12T01:58:11;31.50;;;20.17;;
7645;SDS011;3864;48.180;14.178;2023-09-12T02:00:39;27.48;;;18.70;;
7645;SDS011;3864;48.180;14.178;2023-09-12T02:03:07;32.05;;;19.23;;
7645;SDS011;3864;48.180;14.178;2023-09-12T02:05:34;38.08;;;21.33;;
7645;SDS011;3864;48.180;14.178;2023-09-12T02:08:02;32.15;;;19.55;;
7645;SDS011;3864;48.180;14.178;2023-09-12T02:10:30;43.58;;;24.02;;
7645;SDS011;3864;48.180;14.178;2023-09-12T02:12:57;49.25;;;26.90;;
7645;SDS011;3864;48.180;14.178;2023-09-12T02:15:24;36.42;;;22.20;;
7645;SDS011;3864;48.180;14.178;2023-09-12T02:17:51;36.45;;;21.80;;
7645;SDS011;3864;48.180;14.178;2023-09-12T02:20:20;33.30;;;21.63;;
7645;SDS011;3864;48.180;14.178;2023-09-12T02:22:47;31.38;;;20.92;;
7645;SDS011;3864;48.180;14.178;2023-09-12T02:25:14;35.38;;;21.15;;
7645;SDS011;3864;48.180;14.178;2023-09-12T02:27:41;38.08;;;22.35;;
7645;SDS011;3864;48.180;14.178;2023-09-12T02:30:08;39.67;;;22.63;;
7645;SDS011;3864;48.180;14.178;2023-09-12T02:32:35;35.47;;;21.90;;
7645;SDS011;3864;48.180;14.178;2023-09-12T02:35:02;36.08;;;22.30;;
7645;SDS011;3864;48.180;14.178;2023-09-12T02:37:31;31.48;;;20.52;;
7645;SDS011;3864;48.180;14.178;2023-09-12T02:39:58;34.97;;;20.75;;
7645;SDS011;3864;48.180;14.178;2023-09-12T02:42:25;36.15;;;21.27;;
7645;SDS011;3864;48.180;14.178;2023-09-12T02:44:52;32.30;;;20.60;;
7645;SDS011;3864;48.180;14.178;2023-09-12T02:47:19;27.30;;;18.35;;
7645;SDS011;3864;48.180;14.178;2023-09-12T02:49:46;32.45;;;18.35;;
7645;SDS011;3864;48.180;14.178;2023-09-12T02:52:13;30.70;;;19.63;;
7645;SDS011;3864;48.180;14.178;2023-09-12T02:54:41;32.35;;;19.45;;
7645;SDS011;3864;48.180;14.178;2023-09-12T02:57:08;32.33;;;20.58;;
7645;SDS011;3864;48.180;14.178;2023-09-12T02:59:35;30.70;;;20.65;;
7645;SDS011;3864;48.180;14.178;2023-09-12T03:02:02;29.20;;;19.13;;
7645;SDS011;3864;48.180;14.178;2023-09-12T03:04:29;33.60;;;21.23;;
7645;SDS011;3864;48.180;14.178;2023-09-12T03:06:56;37.85;;;22.55;;
7645;SDS011;3864;48.180;14.178;2023-09-12T03:09:23;39.00;;;21.95;;
7645;SDS011;3864;48.180;14.178;2023-09-12T03:11:52;44.20;;;24.65;;
7645;SDS011;3864;48.180;14.178;2023-09-12T03:14:19;45.45;;;26.35;;
7645;SDS011;3864;48.180;14.178;2023-09-12T03:16:46;46.90;;;26.45;;
7645;SDS011;3864;48.180;14.178;2023-09-12T03:19:13;47.58;;;24.48;;
7645;SDS011;3864;48.180;14.178;2023-09-12T03:21:40;38.60;;;23.88;;
7645;SDS011;3864;48.180;14.178;2023-09-12T03:24:07;35.42;;;22.33;;
7645;SDS011;3864;48.180;14.178;2023-09-12T03:26:34;37.03;;;21.92;;
7645;SDS011;3864;48.180;14.178;2023-09-12T03:29:03;32.53;;;19.55;;
7645;SDS011;3864;48.180;14.178;2023-09-12T03:31:31;32.40;;;19.45;;
7645;SDS011;3864;48.180;14.178;2023-09-12T03:33:58;32.00;;;19.67;;
7645;SDS011;3864;48.180;14.178;2023-09-12T03:36:25;30.65;;;19.33;;
7645;SDS011;3864;48.180;14.178;2023-09-12T03:38:52;37.03;;;21.00;;
7645;SDS011;3864;48.180;14.178;2023-09-12T03:41:19;35.00;;;20.55;;
7645;SDS011;3864;48.180;14.178;2023-09-12T03:43:50;27.60;;;17.73;;
7645;SDS011;3864;48.180;14.178;2023-09-12T03:46:18;26.10;;;17.55;;
7645;SDS011;3864;48.180;14.178;2023-09-12T03:48:45;30.00;;;18.65;;
7645;SDS011;3864;48.180;14.178;2023-09-12T03:51:13;32.92;;;19.75;;
7645;SDS011;3864;48.180;14.178;2023-09-12T03:53:41;45.85;;;23.58;;
7645;SDS011;3864;48.180;14.178;2023-09-12T03:56:09;41.55;;;22.92;;
7645;SDS011;3864;48.180;14.178;2023-09-12T03:58:41;35.65;;;20.98;;
7645;SDS011;3864;48.180;14.178;2023-09-12T04:01:08;35.20;;;20.60;;
7645;SDS011;3864;48.180;14.178;2023-09-12T04:03:37;30.63;;;18.60;;
7645;SDS011;3864;48.180;14.178;2023-09-12T04:06:04;32.58;;;19.05;;
7645;SDS011;3864;48.180;14.178;2023-09-12T04:08:31;36.45;;;20.70;;
7645;SDS011;3864;48.180;14.178;2023-09-12T04:10:58;36.00;;;20.48;;
7645;SDS011;3864;48.180;14.178;2023-09-12T04:13:48;36.13;;;20.65;;
7645;SDS011;3864;48.180;14.178;2023-09-12T04:16:15;38.22;;;22.15;;
7645;SDS011;3864;48.180;14.178;2023-09-12T04:18:44;39.10;;;22.10;;
7645;SDS011;3864;48.180;14.178;2023-09-12T04:21:10;38.00;;;20.48;;
7645;SDS011;3864;48.180;14.178;2023-09-12T04:23:37;36.78;;;19.63;;
7645;SDS011;3864;48.180;14.178;2023-09-12T04:26:04;30.70;;;18.02;;
7645;SDS011;3864;48.180;14.178;2023-09-12T04:28:31;25.48;;;16.48;;
7645;SDS011;3864;48.180;14.178;2023-09-12T04:31:02;25.25;;;16.20;;
7645;SDS011;3864;48.180;14.178;2023-09-12T04:33:29;24.00;;;15.35;;
7645;SDS011;3864;48.180;14.178;2023-09-12T04:36:00;32.60;;;18.75;;
7645;SDS011;3864;48.180;14.178;2023-09-12T04:38:27;32.22;;;19.00;;
7645;SDS011;3864;48.180;14.178;2023-09-12T04:40:54;32.80;;;18.20;;
7645;SDS011;3864;48.180;14.178;2023-09-12T04:43:22;34.45;;;19.55;;
7645;SDS011;3864;48.180;14.178;2023-09-12T04:45:50;30.10;;;17.23;;
7645;SDS011;3864;48.180;14.178;2023-09-12T04:48:20;31.35;;;19.30;;
7645;SDS011;3864;48.180;14.178;2023-09-12T04:50:47;35.40;;;18.35;;
7645;SDS011;3864;48.180;14.178;2023-09-12T04:53:16;36.60;;;20.80;;
7645;SDS011;3864;48.180;14.178;2023-09-12T04:55:45;38.53;;;21.67;;
7645;SDS011;3864;48.180;14.178;2023-09-12T04:58:12;38.40;;;21.13;;
7645;SDS011;3864;48.180;14.178;2023-09-12T05:00:40;41.55;;;22.70;;
7645;SDS011;3864;48.180;14.178;2023-09-12T05:03:07;40.60;;;22.15;;
7645;SDS011;3864;48.180;14.178;2023-09-12T05:05:34;35.80;;;21.92;;
7645;SDS011;3864;48.180;14.178;2023-09-12T05:08:03;40.78;;;22.45;;
7645;SDS011;3864;48.180;14.178;2023-09-12T05:13:00;41.45;;;22.60;;
7645;SDS011;3864;48.180;14.178;2023-09-12T05:15:28;39.60;;;22.45;;
7645;SDS011;3864;48.180;14.178;2023-09-12T05:17:56;40.25;;;21.00;;
7645;SDS011;3864;48.180;14.178;2023-09-12T05:20:24;38.65;;;22.02;;
7645;SDS011;3864;48.180;14.178;2023-09-12T05:22:52;37.22;;;22.80;;
7645;SDS011;3864;48.180;14.178;2023-09-12T05:32:31;38.40;;;22.58;;
7645;SDS011;3864;48.180;14.178;2023-09-12T05:38:21;36.17;;;21.70;;
7645;SDS011;3864;48.180;14.178;2023-09-12T05:45:07;36.67;;;21.33;;
7645;SDS011;3864;48.180;14.178;2023-09-12T05:50:17;34.97;;;21.13;;
7645;SDS011;3864;48.180;14.178;2023-09-12T05:53:05;42.00;;;24.17;;
7645;SDS011;3864;48.180;14.178;2023-09-12T05:55:32;45.55;;;24.80;;
7645;SDS011;3864;48.180;14.178;2023-09-12T05:58:01;46.30;;;25.67;;
7645;SDS011;3864;48.180;14.178;2023-09-12T06:00:30;45.50;;;25.48;;
7645;SDS011;3864;48.180;14.178;2023-09-12T06:02:57;51.75;;;27.58;;
7645;SDS011;3864;48.180;14.178;2023-09-12T06:05:24;49.10;;;25.70;;
7645;SDS011;3864;48.180;14.178;2023-09-12T06:07:51;47.00;;;28.38;;
7645;SDS011;3864;48.180;14.178;2023-09-12T06:10:18;49.13;;;27.95;;
7645;SDS011;3864;48.180;14.178;2023-09-12T06:12:45;50.92;;;27.60;;
7645;SDS011;3864;48.180;14.178;2023-09-12T06:15:14;50.25;;;28.05;;
7645;SDS011;3864;48.180;14.178;2023-09-12T06:17:41;48.67;;;27.65;;
7645;SDS011;3864;48.180;14.178;2023-09-12T06:20:08;61.58;;;31.02;;
7645;SDS011;3864;48.180;14.178;2023-09-12T06:22:36;60.03;;;30.90;;
7645;SDS011;3864;48.180;14.178;2023-09-12T06:25:03;57.55;;;30.52;;
7645;SDS011;3864;48.180;14.178;2023-09-12T06:27:31;58.47;;;31.55;;
7645;SDS011;3864;48.180;14.178;2023-09-12T06:29:58;59.53;;;32.65;;
7645;SDS011;3864;48.180;14.178;2023-09-12T06:32:26;66.05;;;34.05;;
7645;SDS011;3864;48.180;14.178;2023-09-12T06:34:53;62.35;;;35.53;;
7645;SDS011;3864;48.180;14.178;2023-09-12T06:37:20;59.75;;;33.30;;
7645;SDS011;3864;48.180;14.178;2023-09-12T06:39:49;62.75;;;34.35;;
7645;SDS011;3864;48.180;14.178;2023-09-12T06:42:16;67.22;;;34.50;;
7645;SDS011;3864;48.180;14.178;2023-09-12T06:44:44;62.72;;;35.45;;
7645;SDS011;3864;48.180;14.178;2023-09-12T06:47:11;61.67;;;34.92;;
7645;SDS011;3864;48.180;14.178;2023-09-12T06:49:40;59.97;;;35.70;;
7645;SDS011;3864;48.180;14.178;2023-09-12T06:52:07;63.58;;;34.97;;
7645;SDS011;3864;48.180;14.178;2023-09-12T06:54:35;65.13;;;34.42;;
7645;SDS011;3864;48.180;14.178;2023-09-12T06:57:02;66.32;;;35.83;;
7645;SDS011;3864;48.180;14.178;2023-09-12T06:59:29;62.83;;;35.88;;
7645;SDS011;3864;48.180;14.178;2023-09-12T07:01:56;64.20;;;35.72;;
7645;SDS011;3864;48.180;14.178;2023-09-12T07:04:23;64.63;;;36.15;;
7645;SDS011;3864;48.180;14.178;2023-09-12T07:06:52;64.13;;;35.00;;
7645;SDS011;3864;48.180;14.178;2023-09-12T07:09:19;63.08;;;35.47;;
7645;SDS011;3864;48.180;14.178;2023-09-12T07:11:46;66.35;;;35.63;;
7645;SDS011;3864;48.180;14.178;2023-09-12T07:14:13;71.40;;;37.60;;
7645;SDS011;3864;48.180;14.178;2023-09-12T07:16:41;64.82;;;36.65;;
7645;SDS011;3864;48.180;14.178;2023-09-12T07:19:08;67.97;;;37.20;;
7645;SDS011;3864;48.180;14.178;2023-09-12T07:21:36;68.72;;;37.25;;
7645;SDS011;3864;48.180;14.178;2023-09-12T07:24:13;63.90;;;37.00;;
7645;SDS011;3864;48.180;14.178;2023-09-12T07:26:39;63.08;;;36.90;;
7645;SDS011;3864;48.180;14.178;2023-09-12T07:29:06;65.60;;;34.15;;
7645;SDS011;3864;48.180;14.178;2023-09-12T07:31:34;69.28;;;38.30;;
7645;SDS011;3864;48.180;14.178;2023-09-12T07:34:04;65.75;;;36.05;;
7645;SDS011;3864;48.180;14.178;2023-09-12T07:36:40;65.97;;;37.72;;
7645;SDS011;3864;48.180;14.178;2023-09-12T07:39:07;72.95;;;39.88;;
7645;SDS011;3864;48.180;14.178;2023-09-12T07:41:36;67.50;;;39.13;;
7645;SDS011;3864;48.180;14.178;2023-09-12T07:44:03;71.50;;;39.90;;
7645;SDS011;3864;48.180;14.178;2023-09-12T07:46:35;64.82;;;38.03;;
7645;SDS011;3864;48.180;14.178;2023-09-12T07:49:03;63.97;;;38.20;;
7645;SDS011;3864;48.180;14.178;2023-09-12T07:51:32;62.85;;;38.20;;
7645;SDS011;3864;48.180;14.178;2023-09-12T07:53:59;61.83;;;35.55;;
7645;SDS011;3864;48.180;14.178;2023-09-12T07:56:26;57.00;;;35.60;;
7645;SDS011;3864;48.180;14.178;2023-09-12T07:58:56;59.35;;;37.63;;
7645;SDS011;3864;48.180;14.178;2023-09-12T08:01:23;60.00;;;35.42;;
7645;SDS011;3864;48.180;14.178;2023-09-12T08:03:52;58.97;;;35.15;;
7645;SDS011;3864;48.180;14.178;2023-09-12T08:06:19;59.22;;;37.22;;
7645;SDS011;3864;48.180;14.178;2023-09-12T08:08:48;59.10;;;38.08;;
7645;SDS011;3864;48.180;14.178;2023-09-12T08:11:15;56.85;;;37.33;;
7645;SDS011;3864;48.180;14.178;2023-09-12T08:13:42;60.20;;;38.78;;
7645;SDS011;3864;48.180;14.178;2023-09-12T08:16:11;52.42;;;34.60;;
7645;SDS011;3864;48.180;14.178;2023-09-12T08:18:38;53.90;;;37.83;;
7645;SDS011;3864;48.180;14.178;2023-09-12T08:21:05;56.03;;;35.25;;
7645;SDS011;3864;48.180;14.178;2023-09-12T08:23:32;50.85;;;35.42;;
7645;SDS011;3864;48.180;14.178;2023-09-12T08:25:59;56.63;;;34.63;;
7645;SDS011;3864;48.180;14.178;2023-09-12T08:28:27;51.83;;;34.90;;
7645;SDS011;3864;48.180;14.178;2023-09-12T08:30:54;47.78;;;34.25;;
7645;SDS011;3864;48.180;14.178;2023-09-12T08:33:23;41.38;;;30.45;;
7645;SDS011;3864;48.180;14.178;2023-09-12T08:35:50;38.45;;;30.52;;
7645;SDS011;3864;48.180;14.178;2023-09-12T08:38:17;37.47;;;28.92;;
7645;SDS011;3864;48.180;14.178;2023-09-12T08:40:47;34.10;;;26.13;;
7645;SDS011;3864;48.180;14.178;2023-09-12T08:43:15;34.10;;;26.60;;
7645;SDS011;3864;48.180;14.178;2023-09-12T08:45:42;33.05;;;26.63;;
7645;SDS011;3864;48.180;14.178;2023-09-12T08:48:10;28.65;;;24.30;;
7645;SDS011;3864;48.180;14.178;2023-09-12T08:50:39;30.92;;;24.88;;
7645;SDS011;3864;48.180;14.178;2023-09-12T08:53:06;28.95;;;24.42;;
7645;SDS011;3864;48.180;14.178;2023-09-12T08:55:34;29.55;;;23.17;;
7645;SDS011;3864;48.180;14.178;2023-09-12T08:58:02;26.15;;;21.52;;
7645;SDS011;3864;48.180;14.178;2023-09-12T09:00:34;28.92;;;22.27;;
7645;SDS011;3864;48.180;14.178;2023-09-12T09:03:02;25.98;;;22.80;;
7645;SDS011;3864;48.180;14.178;2023-09-12T09:05:30;26.83;;;20.80;;
7645;SDS011;3864;48.180;14.178;2023-09-12T09:08:00;23.60;;;20.77;;
7645;SDS011;3864;48.180;14.178;2023-09-12T09:10:28;25.85;;;21.17;;
7645;SDS011;3864;48.180;14.178;2023-09-12T09:12:57;26.13;;;21.00;;
7645;SDS011;3864;48.180;14.178;2023-09-12T09:15:25;25.80;;;21.35;;
7645;SDS011;3864;48.180;14.178;2023-09-12T09:17:53;23.35;;;20.25;;
7645;SDS011;3864;48.180;14.178;2023-09-12T09:20:26;24.38;;;19.98;;
7645;SDS011;3864;48.180;14.178;2023-09-12T09:22:58;24.15;;;19.50;;
7645;SDS011;3864;48.180;14.178;2023-09-12T09:25:30;23.73;;;19.60;;
7645;SDS011;3864;48.180;14.178;2023-09-12T09:27:57;22.27;;;18.83;;
7645;SDS011;3864;48.180;14.178;2023-09-12T09:30:41;23.90;;;19.85;;
7645;SDS011;3864;48.180;14.178;2023-09-12T09:33:10;22.40;;;18.17;;
7645;SDS011;3864;48.180;14.178;2023-09-12T09:35:37;20.55;;;18.35;;
7645;SDS011;3864;48.180;14.178;2023-09-12T09:38:08;19.80;;;17.45;;
7645;SDS011;3864;48.180;14.178;2023-09-12T09:40:41;20.02;;;17.70;;
7645;SDS011;3864;48.180;14.178;2023-09-12T09:43:09;20.45;;;17.52;;
7645;SDS011;3864;48.180;14.178;2023-09-12T09:45:42;24.23;;;18.48;;
7645;SDS011;3864;48.180;14.178;2023-09-12T09:48:13;20.45;;;17.40;;
7645;SDS011;3864;48.180;14.178;2023-09-12T09:50:44;19.23;;;16.60;;
7645;SDS011;3864;48.180;14.178;2023-09-12T09:53:13;19.60;;;16.15;;
7645;SDS011;3864;48.180;14.178;2023-09-12T09:55:41;19.80;;;17.25;;
7645;SDS011;3864;48.180;14.178;2023-09-12T09:58:08;20.58;;;15.32;;
7645;SDS011;3864;48.180;14.178;2023-09-12T10:00:41;18.80;;;16.40;;
7645;SDS011;3864;48.180;14.178;2023-09-12T10:03:09;19.60;;;16.17;;
7645;SDS011;3864;48.180;14.178;2023-09-12T10:05:37;16.52;;;14.82;;
7645;SDS011;3864;48.180;14.178;2023-09-12T10:08:06;17.05;;;15.23;;
7645;SDS011;3864;48.180;14.178;2023-09-12T10:10:36;18.25;;;13.85;;
7645;SDS011;3864;48.180;14.178;2023-09-12T10:13:05;15.35;;;13.52;;
7645;SDS011;3864;48.180;14.178;2023-09-12T10:15:33;16.52;;;14.35;;
7645;SDS011;3864;48.180;14.178;2023-09-12T10:18:04;15.95;;;14.05;;
7645;SDS011;3864;48.180;14.178;2023-09-12T10:20:37;17.05;;;14.57;;
7645;SDS011;3864;48.180;14.178;2023-09-12T10:23:17;15.73;;;12.70;;
7645;SDS011;3864;48.180;14.178;2023-09-12T10:25:52;15.88;;;14.15;;
7645;SDS011;3864;48.180;14.178;2023-09-12T10:28:21;16.48;;;13.38;;
7645;SDS011;3864;48.180;14.178;2023-09-12T10:30:51;14.55;;;13.15;;
7645;SDS011;3864;48.180;14.178;2023-09-12T10:33:22;17.00;;;13.48;;
7645;SDS011;3864;48.180;14.178;2023-09-12T10:35:56;14.25;;;12.75;;
7645;SDS011;3864;48.180;14.178;2023-09-12T10:38:25;14.30;;;12.40;;
7645;SDS011;3864;48.180;14.178;2023-09-12T10:40:56;13.98;;;12.50;;
7645;SDS011;3864;48.180;14.178;2023-09-12T10:43:28;13.40;;;12.10;;
7645;SDS011;3864;48.180;14.178;2023-09-12T10:46:00;14.48;;;12.48;;
7645;SDS011;3864;48.180;14.178;2023-09-12T10:48:28;12.10;;;10.57;;
7645;SDS011;3864;48.180;14.178;2023-09-12T10:50:56;12.85;;;11.18;;
7645;SDS011;3864;48.180;14.178;2023-09-12T10:53:25;12.90;;;10.45;;
7645;SDS011;3864;48.180;14.178;2023-09-12T10:56:13;11.35;;;9.90;;
7645;SDS011;3864;48.180;14.178;2023-09-12T11:01:37;9.57;;;8.05;;
7645;SDS011;3864;48.180;14.178;2023-09-12T11:06:58;9.93;;;8.02;;
7645;SDS011;3864;48.180;14.178;2023-09-12T11:09:25;17.08;;;9.27;;
7645;SDS011;3864;48.180;14.178;2023-09-12T11:12:02;11.15;;;8.15;;
7645;SDS011;3864;48.180;14.178;2023-09-12T11:14:30;14.98;;;10.02;;
7645;SDS011;3864;48.180;14.178;2023-09-12T11:17:19;14.75;;;9.38;;
7645;SDS011;3864;48.180;14.178;2023-09-12T11:19:52;15.07;;;9.30;;
7645;SDS011;3864;48.180;14.178;2023-09-12T11:22:23;17.98;;;8.48;;
7645;SDS011;3864;48.180;14.178;2023-09-12T11:24:52;15.18;;;9.07;;
7645;SDS011;3864;48.180;14.178;2023-09-12T11:27:22;9.80;;;8.80;;
7645;SDS011;3864;48.180;14.178;2023-09-12T11:29:50;11.70;;;8.68;;
7645;SDS011;3864;48.180;14.178;2023-09-12T11:32:29;10.82;;;8.18;;
7645;SDS011;3864;48.180;14.178;2023-09-12T11:34:57;11.93;;;8.95;;
7645;SDS011;3864;48.180;14.178;2023-09-12T11:37:26;12.80;;;8.40;;
7645;SDS011;3864;48.180;14.178;2023-09-12T11:39:55;8.48;;;7.57;;
7645;SDS011;3864;48.180;14.178;2023-09-12T11:42:25;12.90;;;8.60;;
7645;SDS011;3864;48.180;14.178;2023-09-12T11:44:53;9.93;;;8.93;;
7645;SDS011;3864;48.180;14.178;2023-09-12T11:47:21;10.00;;;8.73;;
7645;SDS011;3864;48.180;14.178;2023-09-12T11:49:48;12.55;;;7.93;;
7645;SDS011;3864;48.180;14.178;2023-09-12T11:52:16;9.20;;;8.00;;
7645;SDS011;3864;48.180;14.178;2023-09-12T11:54:43;11.38;;;7.95;;
7645;SDS011;3864;48.180;14.178;2023-09-12T11:57:12;8.88;;;7.47;;
7645;SDS011;3864;48.180;14.178;2023-09-12T11:59:42;10.27;;;8.10;;
7645;SDS011;3864;48.180;14.178;2023-09-12T12:02:10;7.47;;;6.78;;
7645;SDS011;3864;48.180;14.178;2023-09-12T12:04:38;8.80;;;7.90;;
7645;SDS011;3864;48.180;14.178;2023-09-12T12:07:04;11.40;;;7.45;;
7645;SDS011;3864;48.180;14.178;2023-09-12T12:09:32;8.68;;;7.80;;
7645;SDS011;3864;48.180;14.178;2023-09-12T12:12:03;7.63;;;6.82;;
7645;SDS011;3864;48.180;14.178;2023-09-12T12:14:34;7.38;;;6.63;;
7645;SDS011;3864;48.180;14.178;2023-09-12T12:19:45;10.65;;;7.47;;
7645;SDS011;3864;48.180;14.178;2023-09-12T12:22:13;9.32;;;6.72;;
7645;SDS011;3864;48.180;14.178;2023-09-12T12:24:40;7.75;;;6.82;;
7645;SDS011;3864;48.180;14.178;2023-09-12T12:27:14;9.13;;;6.80;;
7645;SDS011;3864;48.180;14.178;2023-09-12T12:29:41;7.80;;;7.00;;
7645;SDS011;3864;48.180;14.178;2023-09-12T12:32:09;8.18;;;6.70;;
7645;SDS011;3864;48.180;14.178;2023-09-12T12:34:39;7.80;;;7.00;;
7645;SDS011;3864;48.180;14.178;2023-09-12T12:37:06;8.30;;;7.35;;
7645;SDS011;3864;48.180;14.178;2023-09-12T12:39:33;8.43;;;7.10;;
7645;SDS011;3864;48.180;14.178;2023-09-12T12:42:01;7.55;;;6.70;;
7645;SDS011;3864;48.180;14.178;2023-09-12T12:44:34;8.30;;;7.10;;
7645;SDS011;3864;48.180;14.178;2023-09-12T12:47:05;9.15;;;7.20;;
7645;SDS011;3864;48.180;14.178;2023-09-12T12:49:39;8.15;;;6.95;;
7645;SDS011;3864;48.180;14.178;2023-09-12T12:54:35;7.63;;;6.32;;
7645;SDS011;3864;48.180;14.178;2023-09-12T12:57:02;8.60;;;6.60;;
7645;SDS011;3864;48.180;14.178;2023-09-12T12:59:30;6.70;;;6.03;;
7645;SDS011;3864;48.180;14.178;2023-09-12T13:02:01;7.47;;;6.65;;
7645;SDS011;3864;48.180;14.178;2023-09-12T13:04:35;8.52;;;6.50;;
7645;SDS011;3864;48.180;14.178;2023-09-12T13:07:05;7.70;;;6.60;;
7645;SDS011;3864;48.180;14.178;2023-09-12T13:09:32;8.48;;;6.43;;
7645;SDS011;3864;48.180;14.178;2023-09-12T13:12:01;7.35;;;6.57;;
7645;SDS011;3864;48.180;14.178;2023-09-12T13:14:30;7.68;;;6.80;;
7645;SDS011;3864;48.180;14.178;2023-09-12T13:16:57;7.82;;;7.03;;
7645;SDS011;3864;48.180;14.178;2023-09-12T13:19:25;6.78;;;5.93;;
7645;SDS011;3864;48.180;14.178;2023-09-12T13:21:52;7.60;;;6.90;;
7645;SDS011;3864;48.180;14.178;2023-09-12T13:24:21;8.50;;;6.57;;
7645;SDS011;3864;48.180;14.178;2023-09-12T13:26:48;8.32;;;6.28;;
7645;SDS011;3864;48.180;14.178;2023-09-12T13:29:15;7.32;;;6.45;;
7645;SDS011;3864;48.180;14.178;2023-09-12T13:31:42;7.22;;;6.53;;
7645;SDS011;3864;48.180;14.178;2023-09-12T13:34:09;7.18;;;6.32;;
7645;SDS011;3864;48.180;14.178;2023-09-12T13:36:37;7.68;;;6.78;;
7645;SDS011;3864;48.180;14.178;2023-09-12T13:39:04;7.85;;;6.88;;
7645;SDS011;3864;48.180;14.178;2023-09-12T13:41:33;6.93;;;6.10;;
7645;SDS011;3864;48.180;14.178;2023-09-12T13:44:00;7.95;;;7.03;;
7645;SDS011;3864;48.180;14.178;2023-09-12T13:46:29;8.27;;;7.32;;
7645;SDS011;3864;48.180;14.178;2023-09-12T13:48:59;7.57;;;6.60;;
7645;SDS011;3864;48.180;14.178;2023-09-12T13:51:28;9.15;;;6.65;;
7645;SDS011;3864;48.180;14.178;2023-09-12T13:53:55;7.22;;;6.47;;
7645;SDS011;3864;48.180;14.178;2023-09-12T13:56:23;8.98;;;6.68;;
7645;SDS011;3864;48.180;14.178;2023-09-12T13:58:51;7.25;;;6.15;;
7645;SDS011;3864;48.180;14.178;2023-09-12T14:01:18;6.82;;;6.10;;
7645;SDS011;3864;48.180;14.178;2023-09-12T14:03:46;7.20;;;6.05;;
7645;SDS011;3864;48.180;14.178;2023-09-12T14:06:13;8.65;;;6.95;;
7645;SDS011;3864;48.180;14.178;2023-09-12T14:08:40;9.02;;;6.72;;
7645;SDS011;3864;48.180;14.178;2023-09-12T14:11:07;7.32;;;6.57;;
7645;SDS011;3864;48.180;14.178;2023-09-12T14:13:34;8.32;;;6.93;;
7645;SDS011;3864;48.180;14.178;2023-09-12T14:16:02;8.00;;;7.20;;
7645;SDS011;3864;48.180;14.178;2023-09-12T14:18:29;7.60;;;6.90;;
7645;SDS011;3864;48.180;14.178;2023-09-12T14:20:56;8.30;;;6.82;;
7645;SDS011;3864;48.180;14.178;2023-09-12T14:23:24;7.55;;;6.25;;
7645;SDS011;3864;48.180;14.178;2023-09-12T14:25:50;7.80;;;6.95;;
7645;SDS011;3864;48.180;14.178;2023-09-12T14:28:17;8.70;;;7.22;;
7645;SDS011;3864;48.180;14.178;2023-09-12T14:30:45;8.23;;;6.80;;
7645;SDS011;3864;48.180;14.178;2023-09-12T14:36:36;8.88;;;6.72;;
7645;SDS011;3864;48.180;14.178;2023-09-12T14:41:49;9.35;;;7.45;;
7645;SDS011;3864;48.180;14.178;2023-09-12T14:44:19;8.32;;;7.10;;
7645;SDS011;3864;48.180;14.178;2023-09-12T14:46:47;11.10;;;7.38;;
7645;SDS011;3864;48.180;14.178;2023-09-12T14:49:14;15.20;;;6.75;;
7645;SDS011;3864;48.180;14.178;2023-09-12T14:51:43;9.45;;;7.65;;
7645;SDS011;3864;48.180;14.178;2023-09-12T14:54:14;10.27;;;7.10;;
7645;SDS011;3864;48.180;14.178;2023-09-12T14:56:52;14.95;;;7.85;;
7645;SDS011;3864;48.180;14.178;2023-09-12T14:59:21;7.82;;;6.60;;
7645;SDS011;3864;48.180;14.178;2023-09-12T15:01:53;9.88;;;7.20;;
7645;SDS011;3864;48.180;14.178;2023-09-12T15:04:30;8.88;;;7.05;;
7645;SDS011;3864;48.180;14.178;2023-09-12T15:07:05;10.45;;;7.68;;
7645;SDS011;3864;48.180;14.178;2023-09-12T15:09:34;8.38;;;6.50;;
7645;SDS011;3864;48.180;14.178;2023-09-12T15:12:06;8.05;;;7.25;;
7645;SDS011;3864;48.180;14.178;2023-09-12T15:14:37;8.27;;;6.53;;
7645;SDS011;3864;48.180;14.178;2023-09-12T15:17:09;6.88;;;6.18;;
7645;SDS011;3864;48.180;14.178;2023-09-12T15:19:41;7.63;;;6.40;;
7645;SDS011;3864;48.180;14.178;2023-09-12T15:22:21;8.15;;;6.60;;
7645;SDS011;3864;48.180;14.178;2023-09-12T15:24:58;8.50;;;7.10;;
7645;SDS011;3864;48.180;14.178;2023-09-12T15:27:26;7.53;;;6.82;;
7645;SDS011;3864;48.180;14.178;2023-09-12T15:29:54;9.43;;;7.00;;
7645;SDS011;3864;48.180;14.178;2023-09-12T15:32:21;8.30;;;6.38;;
7645;SDS011;3864;48.180;14.178;2023-09-12T15:34:48;7.82;;;6.55;;
7645;SDS011;3864;48.180;14.178;2023-09-12T15:37:15;8.60;;;7.22;;